Coates, United Kingdom
Current Conditions -  °F | °C
As of 6:48 AM on Saturday 25 Oct 2014 (Local Time) from EGVA Reporting Station
Drizzle Drizzle  
Wind Chill:   Ceiling: 2500
Heat Index:   Visibility: 6mi
Dew Point:   Wind: 9mph
Humidity: 100%   Direction: 240°WSW
Pressure: 30.01"   Gusts: NA
Location:  51.71°N, 2.03°W
Report Text: EGVA 250548Z AUTO 24008KT 9999 -DZ BKN025 OVC033 09/09 A3001 RMK AO2 CIG 025V034
Loading
Personal Weather Stations






























Interactive Weather Map
Tropical Storm Tracking
New forecast layout! Learn more

10-Day Weather Forecast

Advertisements
Track Severe Weather on mobile